Time;durP1;ratioP1;P1;durP2;ratioP2;P2;SDS_P1;SDS_P2;PMS_P1;PMS_P2;Temp;Humidity;BMP_temperature;BMP_pressure;BME280_temperature;BME280_humidity;BME280_pressure;Samples;Min_cycle;Max_cycle;Signal;HPM_P1;HPM_P2
2021/06/13 00:02:21;;;;;;;0.10;0.10;;;;;;;16.85;55.10;102806.66;5055316;28;20025;-82
2021/06/13 00:04:47;;;;;;;0.10;0.10;;;;;;;16.94;54.52;102798.53;5069900;22;20032;-80
2021/06/13 00:07:14;;;;;;;0.10;0.10;;;;;;;16.96;55.04;102810.13;5054908;28;20037;-81
2021/06/13 00:09:40;;;;;;;0.03;0.03;;;;;;;16.93;55.29;102810.16;5055415;28;20048;-81
2021/06/13 00:12:09;;;;;;;0.10;0.10;;;;;;;16.94;54.46;102795.88;5055230;28;20116;-81
2021/06/13 00:14:36;;;;;;;0.22;0.20;;;;;;;16.89;55.17;102797.69;5059833;28;20438;-81
2021/06/13 00:17:03;;;;;;;1.70;1.63;;;;;;;16.87;54.93;102796.84;5074978;28;20029;-81
2021/06/13 00:19:29;;;;;;;0.10;0.10;;;;;;;16.85;56.40;102806.66;5075381;28;20032;-81
2021/06/13 00:21:56;;;;;;;0.52;0.52;;;;;;;16.83;55.21;102798.66;5073815;28;20099;-81
2021/06/13 00:24:22;;;;;;;0.20;0.20;;;;;;;16.87;55.63;102802.19;5075153;28;20085;-81
2021/06/13 00:26:49;;;;;;;0.10;0.10;;;;;;;16.77;56.24;102804.09;5075036;28;20063;-79
2021/06/13 00:29:16;;;;;;;0.00;0.00;;;;;;;16.84;55.12;102803.13;5074910;28;20028;-81
2021/06/13 00:31:42;;;;;;;0.00;0.00;;;;;;;16.69;56.19;102796.19;5074783;28;20125;-81
2021/06/13 00:34:09;;;;;;;0.40;0.40;;;;;;;16.73;55.68;102803.28;5074474;28;20657;-80
2021/06/13 00:36:35;;;;;;;0.10;0.10;;;;;;;16.76;55.11;102803.25;5074962;28;20056;-79
2021/06/13 00:39:02;;;;;;;0.00;0.00;;;;;;;16.72;56.18;102796.13;5074820;28;20055;-79
2021/06/13 00:41:28;;;;;;;0.00;0.00;;;;;;;16.74;55.48;102799.69;5074557;28;20020;-79
2021/06/13 00:43:55;;;;;;;0.05;0.05;;;;;;;16.68;56.55;102796.22;5074653;28;20024;-80
2021/06/13 00:46:22;;;;;;;0.10;0.10;;;;;;;16.63;56.12;102802.50;5074350;28;20433;-81
2021/06/13 00:48:48;;;;;;;0.10;0.10;;;;;;;16.65;55.69;102799.84;5074442;28;20494;-79
2021/06/13 00:51:15;;;;;;;0.00;0.00;;;;;;;16.66;55.57;102797.13;5074816;28;20048;-80
2021/06/13 00:53:42;;;;;;;0.10;0.10;;;;;;;16.60;57.33;102801.69;5074693;28;20086;-80
2021/06/13 00:56:08;;;;;;;0.20;0.20;;;;;;;16.55;57.44;102798.16;5074442;28;20028;-82
2021/06/13 00:58:35;;;;;;;0.03;0.03;;;;;;;16.57;56.82;102801.72;5074187;28;20056;-81
2021/06/13 01:01:02;;;;;;;0.03;0.03;;;;;;;16.55;57.26;102799.06;5074291;28;20489;-80
2021/06/13 01:03:28;;;;;;;0.00;0.00;;;;;;;16.57;57.40;102801.72;5074030;28;20553;-79
2021/06/13 01:05:55;;;;;;;0.25;0.25;;;;;;;16.61;56.68;102800.75;5074383;28;20037;-80
2021/06/13 01:19:44;;;;;;;0.25;0.25;;;;;;;16.56;56.83;102805.31;5090442;27;20150;-81
2021/06/13 01:22:37;;;;;;;0.00;0.00;;;;;;;16.63;56.69;102807.88;5090368;28;20040;-81
2021/06/13 01:31:01;;;;;;;0.00;0.00;;;;;;;16.54;57.92;102796.44;5090343;28;20156;-81
2021/06/13 01:33:31;;;;;;;0.10;0.10;;;;;;;16.47;58.06;102799.19;5091748;28;20109;-81
2021/06/13 01:36:00;;;;;;;0.10;0.10;;;;;;;16.52;56.71;102806.25;5076119;28;20458;-81
2021/06/13 01:38:29;;;;;;;0.10;0.10;;;;;;;16.51;57.26;102805.38;5071322;28;20138;-82
2021/06/13 01:41:01;;;;;;;0.10;0.10;;;;;;;16.54;58.56;102807.13;5071093;28;20469;-81
2021/06/13 01:43:30;;;;;;;0.03;0.03;;;;;;;16.58;57.50;102806.19;5071030;28;20400;-81
2021/06/13 01:45:58;;;;;;;0.00;0.00;;;;;;;16.59;57.72;102808.81;5070980;28;20036;-81
2021/06/13 01:48:25;;;;;;;0.57;0.57;;;;;;;16.63;57.12;102801.63;5071056;28;20120;-81
2021/06/13 01:50:52;;;;;;;8.93;1.25;;;;;;;16.58;57.23;102799.03;5070875;28;20032;-81
2021/06/13 01:53:20;;;;;;;0.20;0.20;;;;;;;16.56;57.50;102799.94;5070603;28;20029;-81
2021/06/13 01:55:48;;;;;;;0.25;0.25;;;;;;;16.56;57.33;102805.31;5070657;28;20025;-81
2021/06/13 01:58:19;;;;;;;0.00;0.00;;;;;;;16.55;57.98;102798.16;5070531;28;20028;-81
2021/06/13 02:00:48;;;;;;;0.10;0.10;;;;;;;16.55;57.42;102795.50;5071035;28;20029;-81
2021/06/13 02:03:16;;;;;;;0.10;0.10;;;;;;;16.57;57.23;102799.91;5070443;28;20028;-81
2021/06/13 02:05:45;;;;;;;0.00;0.00;;;;;;;16.60;57.25;102797.22;5070500;28;20052;-82
2021/06/13 02:08:12;;;;;;;0.10;0.10;;;;;;;16.59;57.66;102799.91;5070448;28;20029;-81
2021/06/13 02:10:39;;;;;;;0.00;0.00;;;;;;;16.59;58.00;102799.91;5070257;28;20387;-81
2021/06/13 02:13:08;;;;;;;0.00;0.00;;;;;;;16.57;56.99;102801.72;5070613;28;20447;-82
2021/06/13 02:15:37;;;;;;;0.10;0.10;;;;;;;16.60;56.97;102797.22;5070514;28;20040;-81
2021/06/13 02:18:06;;;;;;;0.00;0.00;;;;;;;16.59;57.06;102798.13;5070322;28;20074;-81
2021/06/13 02:20:34;;;;;;;0.00;0.00;;;;;;;16.59;56.55;102794.56;5070364;28;20075;-81
2021/06/13 02:23:01;;;;;;;0.10;0.10;;;;;;;16.47;57.00;102792.94;5070252;28;20031;-81
2021/06/13 02:25:28;;;;;;;0.13;0.13;;;;;;;16.48;56.73;102792.91;5069955;28;20027;-80
2021/06/13 02:27:59;;;;;;;0.00;0.00;;;;;;;16.44;56.91;102791.19;5070599;28;20039;-81
2021/06/13 02:30:31;;;;;;;0.98;0.60;;;;;;;16.41;58.69;102795.69;5069978;28;20040;-81
2021/06/13 02:32:59;;;;;;;0.00;0.00;;;;;;;16.42;57.41;102793.00;5070126;28;20029;-81
2021/06/13 02:35:27;;;;;;;0.10;0.10;;;;;;;16.44;57.74;102793.88;5069974;28;20032;-81
2021/06/13 02:37:57;;;;;;;0.20;0.20;;;;;;;16.40;58.60;102791.25;5069884;28;20039;-81
2021/06/13 02:40:25;;;;;;;0.50;0.50;;;;;;;16.42;57.63;102798.34;5066891;28;20040;-81
2021/06/13 02:42:51;;;;;;;0.10;0.10;;;;;;;16.40;58.36;102797.50;5056610;28;20025;-81
2021/06/13 02:45:23;;;;;;;0.10;0.10;;;;;;;16.43;58.03;102800.13;5056564;28;20033;-80
2021/06/13 02:47:50;;;;;;;0.10;0.10;;;;;;;16.45;57.26;102803.66;5056995;28;20029;-81
2021/06/13 02:50:19;;;;;;;0.10;0.10;;;;;;;16.44;57.77;102807.25;5056267;28;20029;-81
2021/06/13 02:52:56;;;;;;;0.10;0.10;;;;;;;16.47;57.57;102800.97;5056723;28;20040;-81
2021/06/13 02:55:33;;;;;;;0.10;0.10;;;;;;;16.43;58.01;102805.47;5056274;28;20029;-81
2021/06/13 02:58:06;;;;;;;0.40;0.40;;;;;;;16.40;58.30;102800.16;5056605;28;20072;-81
2021/06/13 03:00:34;;;;;;;0.00;0.00;;;;;;;16.38;57.76;102801.09;5056322;28;20040;-81
2021/06/13 03:03:01;;;;;;;0.00;0.00;;;;;;;16.38;58.26;102811.81;5056344;28;20094;-82
2021/06/13 03:05:28;;;;;;;0.52;0.40;;;;;;;16.38;58.12;102811.81;5057528;28;20065;-81
2021/06/13 03:07:56;;;;;;;0.10;0.10;;;;;;;16.37;59.09;102816.25;5056829;28;20021;-80
2021/06/13 03:10:24;;;;;;;0.00;0.00;;;;;;;16.42;58.84;102818.88;5056244;28;20067;-80
2021/06/13 03:12:56;;;;;;;0.05;0.05;;;;;;;16.45;58.29;102817.03;5056541;28;20082;-80
2021/06/13 03:15:25;;;;;;;0.00;0.00;;;;;;;16.44;58.34;102809.91;5056139;28;20025;-80
2021/06/13 03:17:53;;;;;;;0.00;0.00;;;;;;;16.45;57.91;102800.13;5056189;28;20071;-80
2021/06/13 03:20:20;;;;;;;0.00;0.00;;;;;;;16.37;58.23;102802.88;5056379;28;20059;-81
2021/06/13 03:22:47;;;;;;;0.10;0.10;;;;;;;16.38;58.68;102809.13;5055916;28;20544;-81
2021/06/13 03:25:14;;;;;;;0.00;0.00;;;;;;;16.39;58.30;102814.44;5055914;28;20036;-81
2021/06/13 03:27:43;;;;;;;0.75;0.75;;;;;;;16.40;58.67;102812.63;5056006;28;20540;-80
2021/06/13 03:30:11;;;;;;;0.10;0.10;;;;;;;16.40;58.37;102809.97;5055707;28;20033;-81
2021/06/13 03:32:37;;;;;;;0.00;0.00;;;;;;;16.44;58.02;102807.25;5055621;28;20029;-81
2021/06/13 03:35:06;;;;;;;0.08;0.08;;;;;;;16.42;58.35;102803.69;5056002;28;20037;-80
2021/06/13 03:37:35;;;;;;;0.32;0.28;;;;;;;16.44;58.32;102811.72;5056002;28;20061;-83
2021/06/13 03:40:02;;;;;;;0.08;0.08;;;;;;;16.42;58.36;102809.03;5055958;28;20530;-81
2021/06/13 03:42:30;;;;;;;0.00;0.00;;;;;;;16.41;58.69;102811.75;5055419;28;20057;-81
2021/06/13 03:44:57;;;;;;;0.00;0.00;;;;;;;16.43;58.86;102804.59;5055434;28;20056;-83
2021/06/13 03:47:24;;;;;;;0.00;0.00;;;;;;;16.44;58.70;102809.91;5055727;28;20108;-81
2021/06/13 03:49:52;;;;;;;0.73;0.73;;;;;;;16.45;58.47;102803.66;5055261;28;20476;-80
2021/06/13 03:52:20;;;;;;;0.00;0.00;;;;;;;16.49;58.50;102809.88;5054590;28;20546;-81
2021/06/13 03:54:46;;;;;;;0.08;0.08;;;;;;;16.50;58.01;102817.88;5055242;28;20483;-81
2021/06/13 03:57:14;;;;;;;0.20;0.20;;;;;;;16.52;58.75;102820.50;5055261;28;20032;-80
2021/06/13 03:59:43;;;;;;;0.65;0.65;;;;;;;16.56;57.87;102826.72;5055630;28;20036;-81
2021/06/13 04:02:11;;;;;;;0.30;0.30;;;;;;;16.54;58.55;102831.22;5055085;28;20384;-81
2021/06/13 04:04:42;;;;;;;0.00;0.00;;;;;;;16.55;58.54;102828.50;5055007;28;20029;-82
2021/06/13 04:07:10;;;;;;;0.10;0.10;;;;;;;16.56;58.81;102829.38;5055209;28;20353;-81
2021/06/13 04:09:39;;;;;;;0.00;0.00;;;;;;;16.58;59.25;102838.28;5055097;28;20124;-81
2021/06/13 04:12:08;;;;;;;0.85;0.85;;;;;;;16.58;58.92;102847.19;5055352;28;20040;-80
2021/06/13 04:14:35;;;;;;;0.00;0.00;;;;;;;16.63;58.73;102839.97;5055088;28;20035;-81
2021/06/13 04:17:02;;;;;;;0.28;0.28;;;;;;;16.65;58.78;102834.63;5054999;28;20021;-81
2021/06/13 04:19:30;;;;;;;0.10;0.10;;;;;;;16.70;58.69;102840.81;5054966;28;20433;-81
2021/06/13 04:21:57;;;;;;;0.00;0.00;;;;;;;16.74;58.69;102847.00;5055063;28;20535;-81
2021/06/13 04:24:25;;;;;;;0.45;0.45;;;;;;;16.78;58.75;102843.38;5055140;28;20029;-81
2021/06/13 04:26:54;;;;;;;2.47;0.63;;;;;;;16.78;58.57;102848.72;5054888;28;20423;-82
2021/06/13 04:29:21;;;;;;;0.00;0.00;;;;;;;16.77;59.27;102855.88;5054361;28;20128;-80
2021/06/13 04:31:47;;;;;;;0.00;0.00;;;;;;;16.76;59.39;102855.88;5054691;28;20078;-80
2021/06/13 04:34:13;;;;;;;0.10;0.10;;;;;;;16.79;59.13;102853.16;5055233;28;20036;-81
2021/06/13 04:36:40;;;;;;;0.10;0.10;;;;;;;16.79;58.97;102862.06;5054589;28;20033;-81
2021/06/13 04:39:06;;;;;;;0.10;0.10;;;;;;;16.79;58.96;102855.84;5054660;28;20529;-80
2021/06/13 04:41:34;;;;;;;0.10;0.10;;;;;;;16.79;58.84;102862.06;5054594;28;20095;-80
2021/06/13 04:44:02;;;;;;;0.10;0.10;;;;;;;16.79;59.10;102862.06;5054510;28;20053;-81
2021/06/13 04:46:29;;;;;;;0.03;0.03;;;;;;;16.77;59.04;102858.56;5054239;28;20384;-81
2021/06/13 04:48:55;;;;;;;0.10;0.10;;;;;;;16.78;59.26;102862.97;5054941;28;20036;-81
2021/06/13 04:51:24;;;;;;;0.20;0.20;;;;;;;16.78;59.81;102876.34;5054281;28;20028;-81
2021/06/13 04:54:17;;;;;;;0.10;0.10;;;;;;;16.91;59.17;102878.88;5054215;28;20033;-80
2021/06/13 04:59:29;;;;;;;0.20;0.20;;;;;;;16.86;59.54;102870.00;5090543;27;20163;-81
2021/06/13 05:01:56;;;;;;;0.10;0.10;;;;;;;16.92;59.11;102875.31;5091393;28;20029;-81
2021/06/13 05:04:22;;;;;;;0.20;0.20;;;;;;;16.96;59.19;102874.41;5090382;28;20030;-81
2021/06/13 05:06:48;;;;;;;0.00;0.00;;;;;;;17.00;59.55;102881.47;5071353;28;20029;-83
2021/06/13 05:09:15;;;;;;;0.45;0.45;;;;;;;17.04;59.42;102882.31;5071247;28;20029;-83
2021/06/13 05:11:41;;;;;;;0.10;0.10;;;;;;;17.09;59.72;102880.44;5071015;28;20036;-81
2021/06/13 05:14:08;;;;;;;0.10;0.10;;;;;;;17.17;59.49;102886.59;5071576;28;20375;-81
2021/06/13 05:16:34;;;;;;;0.05;0.05;;;;;;;17.26;59.21;102890.91;5071068;28;20097;-80
2021/06/13 05:19:01;;;;;;;0.10;0.10;;;;;;;17.27;58.67;102887.31;5070850;28;20037;-81
2021/06/13 05:21:27;;;;;;;0.55;0.55;;;;;;;17.29;59.20;102889.03;5070947;28;20031;-81
2021/06/13 05:23:54;;;;;;;0.03;0.03;;;;;;;17.38;58.99;102893.38;5071009;28;20029;-83
2021/06/13 05:26:20;;;;;;;0.10;0.10;;;;;;;17.42;58.44;102894.22;5070562;28;20060;-82
2021/06/13 05:28:46;;;;;;;0.10;0.10;;;;;;;17.44;58.94;102887.03;5070883;28;20043;-82
2021/06/13 05:31:13;;;;;;;0.30;0.30;;;;;;;17.50;58.60;102883.38;5070743;28;20099;-83
2021/06/13 05:33:39;;;;;;;0.13;0.13;;;;;;;17.55;58.03;102884.19;5070799;28;20384;-81
2021/06/13 05:36:06;;;;;;;0.00;0.00;;;;;;;17.60;57.78;102893.03;5070774;28;20036;-81
2021/06/13 05:38:32;;;;;;;0.08;0.08;;;;;;;17.62;57.75;102892.09;5070690;28;20037;-82
2021/06/13 05:40:58;;;;;;;0.10;0.10;;;;;;;17.66;58.01;102902.75;5070772;28;20029;-82
2021/06/13 05:43:24;;;;;;;0.00;0.00;;;;;;;17.72;57.56;102897.28;5070421;28;20051;-82
2021/06/13 05:45:51;;;;;;;0.00;0.00;;;;;;;17.73;57.33;102894.59;5070467;28;20032;-81
2021/06/13 05:48:17;;;;;;;0.10;0.10;;;;;;;17.75;57.05;102898.13;5070834;28;20055;-81
2021/06/13 05:50:43;;;;;;;0.00;0.00;;;;;;;17.85;57.06;102906.03;5070502;28;20468;-81
2021/06/13 05:53:10;;;;;;;0.03;0.03;;;;;;;17.84;57.29;102901.56;5070415;28;20491;-81
2021/06/13 05:55:37;;;;;;;0.10;0.10;;;;;;;17.90;57.04;102909.50;5070105;28;20537;-81
2021/06/13 05:58:03;;;;;;;0.28;0.28;;;;;;;17.91;56.37;102913.97;5070256;28;20064;-81
2021/06/13 06:00:32;;;;;;;0.10;0.10;;;;;;;17.95;56.72;102919.25;5070301;28;20036;-81
2021/06/13 06:02:59;;;;;;;0.15;0.15;;;;;;;17.93;56.33;102922.84;5069990;28;20024;-81
2021/06/13 06:05:25;;;;;;;0.10;0.10;;;;;;;17.94;56.17;102925.56;5083923;22;20126;-82
2021/06/13 06:07:52;;;;;;;0.52;0.52;;;;;;;17.96;56.10;102933.56;5068898;28;20025;-81
2021/06/13 06:10:21;;;;;;;0.10;0.10;;;;;;;17.98;55.45;102931.75;5058758;28;20383;-82
2021/06/13 06:12:47;;;;;;;0.00;0.00;;;;;;;17.99;56.04;102925.44;5055803;28;20507;-82
2021/06/13 06:15:16;;;;;;;1.38;0.75;;;;;;;18.03;56.09;102927.19;5064381;28;20104;-81
2021/06/13 06:17:44;;;;;;;0.73;0.73;;;;;;;18.06;55.71;102929.78;5075644;28;20506;-81
2021/06/13 06:20:12;;;;;;;0.05;0.05;;;;;;;18.06;55.79;102940.53;5076157;28;20035;-81
2021/06/13 06:22:39;;;;;;;0.10;0.10;;;;;;;18.05;55.73;102938.75;5075702;28;20028;-81
2021/06/13 06:25:07;;;;;;;0.22;0.22;;;;;;;18.09;55.75;102942.25;5075743;28;20559;-82
2021/06/13 06:27:33;;;;;;;0.10;0.10;;;;;;;18.15;56.02;102936.78;5075760;28;20487;-81
2021/06/13 06:30:00;;;;;;;0.15;0.15;;;;;;;18.26;55.42;102947.34;5075936;28;20025;-81
2021/06/13 06:32:27;;;;;;;0.08;0.08;;;;;;;18.27;55.34;102949.09;5075603;28;20103;-81
2021/06/13 06:34:53;;;;;;;0.10;0.10;;;;;;;18.32;55.30;102949.91;5075617;28;20021;-81
2021/06/13 06:37:19;;;;;;;0.00;0.00;;;;;;;18.32;55.13;102952.59;5075642;28;20031;-81
2021/06/13 06:39:45;;;;;;;0.35;0.35;;;;;;;18.36;55.09;102953.41;5075603;28;20035;-81
2021/06/13 06:42:12;;;;;;;0.10;0.10;;;;;;;18.38;54.54;102949.78;5075439;28;20028;-81
2021/06/13 06:44:38;;;;;;;0.10;0.10;;;;;;;18.34;54.21;102956.09;5075398;28;20036;-81
2021/06/13 06:47:04;;;;;;;0.10;0.10;;;;;;;18.35;54.31;102957.00;5075377;28;20033;-81
2021/06/13 06:49:32;;;;;;;0.10;0.10;;;;;;;18.37;54.64;102957.88;5075124;28;20078;-81
2021/06/13 06:51:59;;;;;;;0.10;0.10;;;;;;;18.43;54.68;102955.94;5075225;28;20032;-81
2021/06/13 06:54:26;;;;;;;0.00;0.00;;;;;;;18.47;54.29;102961.22;5075142;28;20425;-81
2021/06/13 06:56:52;;;;;;;0.20;0.20;;;;;;;18.42;55.04;102972.97;5075274;28;20107;-81
2021/06/13 06:59:19;;;;;;;0.00;0.00;;;;;;;18.46;54.47;102964.88;5075204;28;20028;-81
2021/06/13 07:01:45;;;;;;;0.10;0.10;;;;;;;18.49;54.33;102959.41;5075047;28;20032;-81
2021/06/13 07:04:11;;;;;;;0.10;0.10;;;;;;;18.63;54.43;102964.50;5075130;28;20021;-81
2021/06/13 07:06:38;;;;;;;4.53;1.50;;;;;;;18.72;54.20;102967.91;5074774;28;20024;-81
2021/06/13 07:09:04;;;;;;;0.10;0.10;;;;;;;18.73;53.99;102969.66;5074496;28;20461;-81
2021/06/13 07:11:30;;;;;;;0.10;0.10;;;;;;;18.91;54.00;102965.72;5075185;28;20024;-82
2021/06/13 07:13:56;;;;;;;0.00;0.00;;;;;;;19.04;53.32;102971.75;5074503;28;20028;-81
2021/06/13 07:16:23;;;;;;;0.10;0.10;;;;;;;19.15;52.91;102970.63;5075094;28;20032;-82
2021/06/13 07:18:50;;;;;;;0.30;0.30;;;;;;;19.26;53.21;102970.38;5074292;28;20464;-81
2021/06/13 07:21:16;;;;;;;0.73;0.73;;;;;;;19.35;53.34;102973.75;5073838;28;20024;-81
2021/06/13 07:23:43;;;;;;;0.20;0.20;;;;;;;19.48;53.05;102979.72;5074587;28;20020;-81
2021/06/13 07:26:10;;;;;;;0.10;0.10;;;;;;;19.47;52.67;102983.31;5074699;28;20100;-81
2021/06/13 07:28:36;;;;;;;0.65;0.65;;;;;;;19.35;52.55;102984.50;5074439;28;20021;-82
2021/06/13 07:31:03;;;;;;;0.20;0.20;;;;;;;19.68;52.63;102981.91;5074460;28;20119;-81
2021/06/13 07:33:30;;;;;;;0.20;0.20;;;;;;;19.85;52.34;102972.56;5074461;28;20040;-81
2021/06/13 07:35:56;;;;;;;0.05;0.05;;;;;;;19.75;51.19;102987.16;5074813;28;20066;-81
2021/06/13 07:38:22;;;;;;;0.85;0.85;;;;;;;19.78;50.60;102987.09;5074212;28;20036;-81
2021/06/13 07:40:50;;;;;;;0.15;0.15;;;;;;;19.79;50.30;102987.03;5074861;28;20419;-81
2021/06/13 07:43:16;;;;;;;0.00;0.00;;;;;;;19.95;51.03;102992.97;5073926;28;20472;-82
2021/06/13 07:45:43;;;;;;;0.00;0.00;;;;;;;20.00;51.03;102991.03;5074391;28;20472;-82
2021/06/13 07:48:11;;;;;;;0.00;0.00;;;;;;;20.14;50.40;102987.09;5073849;28;20362;-81
2021/06/13 07:50:38;;;;;;;0.10;0.10;;;;;;;20.17;49.99;102987.00;5074667;28;20116;-81
2021/06/13 07:53:06;;;;;;;0.05;0.05;;;;;;;20.23;50.44;102986.84;5072625;28;20027;-82
2021/06/13 07:55:32;;;;;;;0.03;0.03;;;;;;;20.26;49.28;102984.09;5074001;28;20025;-81
2021/06/13 07:57:58;;;;;;;0.00;0.00;;;;;;;20.29;51.13;102981.31;5073736;28;20044;-81
2021/06/13 08:00:24;;;;;;;0.08;0.08;;;;;;;20.44;49.39;102981.81;5073911;28;20111;-81
2021/06/13 08:02:53;;;;;;;0.03;0.03;;;;;;;20.41;49.93;102980.09;5073805;28;20040;-81
2021/06/13 08:05:28;;;;;;;0.65;0.65;;;;;;;20.44;49.58;102982.69;5072618;28;20052;-81
2021/06/13 08:07:56;;;;;;;3.15;0.73;;;;;;;20.63;49.69;102984.88;5073516;28;20036;-81
2021/06/13 08:10:23;;;;;;;0.10;0.10;;;;;;;20.67;49.97;102984.75;5073892;28;20024;-82
2021/06/13 08:12:49;;;;;;;0.10;0.10;;;;;;;20.56;48.54;102996.75;5073421;28;20029;-81
2021/06/13 08:15:17;;;;;;;2.72;1.33;;;;;;;20.72;49.20;102989.16;5073676;28;20035;-81
2021/06/13 08:17:43;;;;;;;2.70;1.58;;;;;;;20.75;47.95;102991.72;5073378;28;20028;-81
2021/06/13 08:20:11;;;;;;;0.90;0.90;;;;;;;20.87;48.87;102991.38;5073866;28;20078;-81
2021/06/13 08:22:37;;;;;;;0.10;0.10;;;;;;;20.95;49.60;102992.06;5073403;28;20071;-81
2021/06/13 08:25:04;;;;;;;0.28;0.28;;;;;;;20.92;49.18;102991.25;5073638;28;20054;-81
2021/06/13 08:27:30;;;;;;;0.10;0.10;;;;;;;20.95;49.02;102994.75;5073455;28;20482;-82
2021/06/13 08:29:58;;;;;;;0.77;0.77;;;;;;;20.99;49.46;102987.44;5073461;28;20035;-81
2021/06/13 08:32:27;;;;;;;0.00;0.00;;;;;;;21.01;49.35;102986.47;5073307;28;20558;-81
2021/06/13 08:34:53;;;;;;;0.10;0.10;;;;;;;21.12;49.21;102991.56;5073560;28;20033;-81
2021/06/13 08:37:19;;;;;;;0.10;0.10;;;;;;;21.11;49.79;102996.97;5073355;28;20029;-83
2021/06/13 08:39:46;;;;;;;0.30;0.30;;;;;;;21.06;47.86;102994.44;5073270;28;20037;-82
2021/06/13 08:42:12;;;;;;;0.30;0.30;;;;;;;21.02;46.63;102990.03;5073576;28;20032;-81
2021/06/13 08:44:39;;;;;;;3.22;2.28;;;;;;;21.05;47.72;102991.75;5072961;28;20368;-81
2021/06/13 08:47:11;;;;;;;0.10;0.10;;;;;;;21.24;47.64;102994.81;5073661;28;20033;-81
2021/06/13 08:49:38;;;;;;;;;;;;;;;21.44;47.26;102996.88;5073570;28;20460;-81
2021/06/13 08:52:05;;;;;;;0.08;0.08;;;;;;;21.42;46.47;102990.63;5073483;28;19916;-81
2021/06/13 08:54:32;;;;;;;0.10;0.10;;;;;;;21.43;45.94;102989.69;5072602;28;20467;-82
2021/06/13 08:56:58;;;;;;;0.85;0.85;;;;;;;21.54;44.85;102989.38;5073397;28;20564;-82
2021/06/13 08:59:24;;;;;;;0.40;0.40;;;;;;;21.67;45.20;102987.16;5072859;28;20039;-82
2021/06/13 09:01:50;;;;;;;0.25;0.25;;;;;;;21.75;46.08;102979.72;5073466;28;20085;-82
2021/06/13 09:04:16;;;;;;;0.25;0.25;;;;;;;21.81;45.89;102980.38;5072969;28;20036;-81
2021/06/13 09:06:42;;;;;;;0.22;0.22;;;;;;;21.78;45.74;102993.09;5073536;28;20033;-82
2021/06/13 09:09:19;;;;;;;0.10;0.10;;;;;;;22.02;45.36;102993.19;5072674;28;20036;-82
2021/06/13 09:14:40;;;;;;;0.00;0.00;;;;;;;22.28;45.34;102982.38;5087263;27;20167;-81
2021/06/13 09:17:17;;;;;;;0.00;0.00;;;;;;;22.47;45.17;102979.06;5070812;28;20488;-81
2021/06/13 09:20:20;;;;;;;0.17;0.17;;;;;;;22.60;43.70;102991.19;5070396;28;20550;-82
2021/06/13 09:23:09;;;;;;;0.47;0.25;;;;;;;22.65;43.88;102988.28;5070326;28;20032;-81
2021/06/13 09:25:38;;;;;;;0.52;0.52;;;;;;;22.66;43.77;102979.25;5070511;28;20385;-83
2021/06/13 09:28:08;;;;;;;0.20;0.20;;;;;;;22.60;43.29;102974.97;5070099;28;20078;-81
2021/06/13 09:30:37;;;;;;;0.00;0.00;;;;;;;22.71;43.81;102981.78;5070498;28;20087;-81
2021/06/13 09:33:09;;;;;;;0.30;0.30;;;;;;;22.83;44.15;102986.72;5071092;28;20057;-81
2021/06/13 09:35:35;;;;;;;;;;;;;;;22.93;44.38;102974.63;5070981;28;20025;-83
2021/06/13 09:38:08;;;;;;;3.03;1.27;;;;;;;22.92;44.55;102980.97;5070248;28;19944;-82
2021/06/13 09:40:34;;;;;;;0.10;0.10;;;;;;;23.14;44.50;102987.34;5070814;28;20078;-83
2021/06/13 09:43:22;;;;;;;1.15;0.47;;;;;;;23.37;44.29;102983.78;5069925;28;20032;-81
2021/06/13 09:45:51;;;;;;;0.10;0.10;;;;;;;23.41;44.08;102988.09;5069840;28;20113;-82
2021/06/13 09:48:18;;;;;;;5.28;1.70;;;;;;;23.47;43.51;102987.88;5069876;28;20507;-81
2021/06/13 09:50:49;;;;;;;0.10;0.10;;;;;;;23.59;42.93;102976.53;5070152;28;20031;-81
2021/06/13 09:53:28;;;;;;;0.05;0.05;;;;;;;23.59;41.99;102981.94;5069857;28;20033;-81
2021/06/13 09:56:03;;;;;;;0.30;0.30;;;;;;;23.71;42.30;102987.78;5069834;28;20043;-82
2021/06/13 09:58:31;;;;;;;0.00;0.00;;;;;;;23.63;39.45;102981.81;5069562;28;20024;-81
2021/06/13 10:01:12;;;;;;;0.10;0.10;;;;;;;23.82;39.83;102971.97;5069966;28;20032;-82
2021/06/13 10:03:39;;;;;;;0.00;0.00;;;;;;;23.74;39.72;102977.72;5069680;28;20030;-82
2021/06/13 10:06:08;;;;;;;0.00;0.00;;;;;;;23.83;41.15;102984.56;5069912;28;20021;-81
2021/06/13 10:08:35;;;;;;;0.50;0.50;;;;;;;23.98;40.53;102979.50;5069970;28;20079;-82
2021/06/13 10:11:03;;;;;;;0.10;0.10;;;;;;;24.12;40.52;102976.19;5069724;28;20025;-81
2021/06/13 10:13:51;;;;;;;0.10;0.10;;;;;;;24.21;38.46;102965.81;5069005;28;20037;-81
2021/06/13 10:16:27;;;;;;;0.15;0.15;;;;;;;24.34;39.89;102971.56;5069313;28;20025;-82
2021/06/13 10:18:56;;;;;;;0.05;0.05;;;;;;;24.27;39.26;102966.50;5069265;28;20426;-81
2021/06/13 10:21:27;;;;;;;0.10;0.10;;;;;;;24.36;38.18;102966.97;5069282;28;20021;-81
2021/06/13 10:23:55;;;;;;;0.28;0.20;;;;;;;24.38;38.94;102972.31;5067479;28;20082;-81
2021/06/13 10:26:21;;;;;;;0.03;0.03;;;;;;;24.43;39.91;102967.56;5055701;28;20021;-81
2021/06/13 10:28:48;;;;;;;0.00;0.00;;;;;;;24.46;39.17;102967.44;5055942;28;20032;-82
2021/06/13 10:31:15;;;;;;;0.10;0.10;;;;;;;24.47;39.25;102971.88;5056274;28;20079;-81
2021/06/13 10:33:41;;;;;;;0.00;0.00;;;;;;;24.63;38.94;102963.06;5055484;28;20025;-82
2021/06/13 10:36:08;;;;;;;0.10;0.10;;;;;;;24.66;38.53;102960.25;5056765;28;20465;-82
2021/06/13 10:38:36;;;;;;;0.10;0.10;;;;;;;24.50;38.72;102971.75;5055670;28;20021;-82
2021/06/13 10:41:04;;;;;;;0.10;0.10;;;;;;;24.82;38.63;102957.69;5056459;28;20079;-81
2021/06/13 10:43:32;;;;;;;0.13;0.13;;;;;;;24.81;37.60;102953.22;5054331;28;20068;-81
2021/06/13 10:46:17;;;;;;;0.00;0.00;;;;;;;24.81;38.09;102954.13;5056123;28;20043;-81
2021/06/13 10:48:50;;;;;;;0.15;0.15;;;;;;;24.94;36.48;102956.25;5055345;28;20083;-81
2021/06/13 10:54:33;;;;;;;0.10;0.10;;;;;;;25.23;38.57;102946.69;5089490;28;20164;-82
2021/06/13 10:59:40;;;;;;;0.10;0.10;;;;;;;25.13;38.04;102942.66;5089155;27;20168;-82
2021/06/13 11:02:13;;;;;;;0.00;0.00;;;;;;;25.29;38.01;102946.38;5091146;28;20036;-82
2021/06/13 11:10:16;;;;;;;0.20;0.20;;;;;;;25.49;38.16;102942.69;5089610;28;20164;-82
2021/06/13 11:18:22;;;;;;;0.40;0.40;;;;;;;25.68;38.64;102947.19;5089284;27;20167;-82
2021/06/13 11:26:32;;;;;;;0.35;0.35;;;;;;;26.05;37.17;102937.16;5075871;28;20160;-82
2021/06/13 11:28:59;;;;;;;0.40;0.40;;;;;;;26.05;36.85;102934.44;5070395;28;20028;-82
2021/06/13 11:31:25;;;;;;;0.10;0.10;;;;;;;26.26;36.97;102937.00;5070918;28;20029;-82
2021/06/13 11:36:42;;;;;;;0.20;0.20;;;;;;;26.50;36.46;102931.22;5052136;28;20165;-81
2021/06/13 11:41:49;;;;;;;0.00;0.00;;;;;;;26.45;36.19;102924.16;5089795;27;20160;-82
2021/06/13 11:47:27;;;;;;;0.00;0.00;;;;;;;26.81;34.90;102930.41;5089681;27;20170;-82
2021/06/13 11:49:53;;;;;;;0.10;0.10;;;;;;;26.76;35.47;102927.06;5090720;28;20031;-82
2021/06/13 11:52:22;;;;;;;0.10;0.10;;;;;;;26.90;35.53;102918.13;5090765;28;20036;-83
2021/06/13 11:54:58;;;;;;;1.00;1.00;;;;;;;27.00;35.74;102922.06;5087589;28;20116;-82
2021/06/13 12:00:14;;;;;;;0.10;0.10;;;;;;;27.13;35.77;102916.81;5089794;27;20217;-82
2021/06/13 12:02:42;;;;;;;0.30;0.30;;;;;;;27.24;35.32;102916.16;5090705;28;20043;-82
2021/06/13 12:05:09;;;;;;;0.10;0.10;;;;;;;27.36;35.50;102918.16;5086063;28;20025;-82
2021/06/13 12:07:38;;;;;;;0.00;0.00;;;;;;;27.40;34.86;102917.09;5070490;28;20513;-83
2021/06/13 12:10:18;;;;;;;0.90;0.90;;;;;;;27.32;35.32;102911.16;5070276;28;20091;-82
2021/06/13 12:12:44;;;;;;;0.15;0.15;;;;;;;27.33;33.58;102907.47;5070256;28;20065;-83
2021/06/13 12:15:11;;;;;;;0.10;0.10;;;;;;;27.50;34.13;102909.22;5070728;28;20032;-83
2021/06/13 12:17:38;;;;;;;0.00;0.00;;;;;;;27.46;35.57;102898.63;5070093;28;20024;-83
2021/06/13 12:20:06;;;;;;;0.05;0.05;;;;;;;27.73;35.43;102893.38;5070355;28;20041;-83
2021/06/13 12:28:11;;;;;;;0.03;0.03;;;;;;;28.01;34.31;102887.06;5070168;28;20134;-82
2021/06/13 12:30:39;;;;;;;0.00;0.00;;;;;;;28.03;34.99;102884.28;5070820;28;20064;-82
2021/06/13 12:33:09;;;;;;;0.00;0.00;;;;;;;28.21;34.58;102876.81;5070201;28;20033;-82
2021/06/13 12:35:46;;;;;;;0.08;0.08;;;;;;;28.32;33.56;102878.84;5070528;28;20029;-82